Back to Top

Language: 

My Weather Underground Personal Weather Station Historical Data with Graphs...

Delerius Weather Station Historical Data
Daily Summary for July 19, 2017 Units:  Metric    English   Both
« Previous Day
Next Day »
Daily Weekly Monthly Yearly Custom
  High: Low: Average:
Temperature: 24.1 °C 15.2 °C 20.6 °C
Dew Point: 18.7 °C 13.2 °C 17.4 °C
Humidity: 90 % 67 % 82 %
Wind Speed: 17.7 km/h 1.6 km/h 8.7 km/h
Wind Gust: 25.7 km/h - -
Wind:- - SSE
Pressure: 1013.4 hPa 1001.2 hPa -
Precipitation: 0 mm    
Historical Graphs
 
 
Tabular Data for July 19, 2017
Time Temperature Dew Point Pressure Wind Wind Speed Wind Gust Humidity Rainfall Rate (Hourly) solar Conditions
00:02 15.3 °C 13.2 °C 1013.4 hPa ENE 1.6 km/h 8 km/h 87 % 0 mm 0 W/m2
00:07 15.3 °C 13.2 °C 1013.4 hPa ENE 1.6 km/h 8 km/h 87 % 0 mm 0 W/m2
00:12 15.3 °C 13.2 °C 1013.4 hPa ENE 1.6 km/h 8 km/h 87 % 0 mm 0 W/m2
00:17 15.3 °C 13.2 °C 1013.1 hPa ENE 1.6 km/h 8 km/h 87 % 0 mm 0 W/m2
00:22 15.3 °C 13.2 °C 1013.1 hPa ENE 1.6 km/h 8 km/h 87 % 0 mm 0 W/m2
00:27 15.3 °C 13.3 °C 1013.1 hPa ENE 1.6 km/h 8 km/h 88 % 0 mm 0 W/m2
00:32 15.3 °C 13.3 °C 1013.1 hPa ENE 1.6 km/h 9.7 km/h 88 % 0 mm 0 W/m2
00:37 15.3 °C 13.3 °C 1013.1 hPa ENE 3.2 km/h 9.7 km/h 88 % 0 mm 0 W/m2
00:42 15.3 °C 13.3 °C 1012.8 hPa NE 3.2 km/h 9.7 km/h 88 % 0 mm 0 W/m2
00:47 15.2 °C 13.2 °C 1012.8 hPa NE 3.2 km/h 8 km/h 88 % 0 mm 0 W/m2
00:52 15.2 °C 13.4 °C 1012.8 hPa NE 3.2 km/h 8 km/h 89 % 0 mm 0 W/m2
00:57 15.2 °C 13.4 °C 1012.8 hPa NE 3.2 km/h 9.7 km/h 89 % 0 mm 0 W/m2
01:02 15.2 °C 13.4 °C 1012.8 hPa NE 3.2 km/h 9.7 km/h 89 % 0 mm 0 W/m2
01:07 15.2 °C 13.6 °C 1012.8 hPa NE 1.6 km/h 9.7 km/h 90 % 0 mm 0 W/m2
01:12 15.2 °C 13.6 °C 1012.8 hPa East 1.6 km/h 9.7 km/h 90 % 0 mm 0 W/m2
01:17 15.2 °C 13.6 °C 1012.8 hPa ENE 3.2 km/h 9.7 km/h 90 % 0 mm 0 W/m2
11:13 19.2 °C 16.6 °C 1005 hPa East 6.4 km/h 14.5 km/h 85 % 0 mm 139 W/m2
11:18 19.3 °C 16.7 °C 1005 hPa ESE 4.8 km/h 11.3 km/h 85 % 0 mm 123 W/m2
11:23 19.3 °C 16.5 °C 1004.6 hPa East 6.4 km/h 11.3 km/h 84 % 0 mm 144 W/m2
11:28 19.3 °C 16.5 °C 1005 hPa East 6.4 km/h 14.5 km/h 84 % 0 mm 88 W/m2
11:33 19.3 °C 16.5 °C 1005 hPa ESE 6.4 km/h 14.5 km/h 84 % 0 mm 60 W/m2
11:39 19.3 °C 16.5 °C 1004.6 hPa ESE 6.4 km/h 12.9 km/h 84 % 0 mm 65 W/m2
11:44 19.3 °C 16.5 °C 1004.6 hPa East 4.8 km/h 11.3 km/h 84 % 0 mm 84 W/m2
11:49 19.3 °C 16.7 °C 1004.6 hPa East 4.8 km/h 11.3 km/h 85 % 0 mm 83 W/m2
11:54 19.3 °C 16.9 °C 1004.3 hPa East 3.2 km/h 11.3 km/h 86 % 0 mm 148 W/m2
11:59 19.4 °C 17 °C 1004.3 hPa ENE 3.2 km/h 14.5 km/h 86 % 0 mm 202 W/m2
12:04 19.4 °C 17 °C 1004.3 hPa ENE 4.8 km/h 14.5 km/h 86 % 0 mm 267 W/m2
12:09 19.4 °C 17.2 °C 1004.3 hPa ENE 4.8 km/h 11.3 km/h 87 % 0 mm 272 W/m2
12:14 19.6 °C 17.4 °C 1004.3 hPa ENE 6.4 km/h 12.9 km/h 87 % 0 mm 325 W/m2
12:19 19.8 °C 17.4 °C 1004.3 hPa ENE 8 km/h 14.5 km/h 86 % 0 mm 390 W/m2
12:24 20 °C 17.6 °C 1004.3 hPa East 8 km/h 14.5 km/h 86 % 0 mm 538 W/m2
12:29 20.4 °C 17.6 °C 1003.9 hPa East 8 km/h 14.5 km/h 84 % 0 mm 520 W/m2
12:34 20.7 °C 17.7 °C 1003.9 hPa East 8 km/h 14.5 km/h 83 % 0 mm 436 W/m2
12:39 21.1 °C 17.9 °C 1003.9 hPa East 6.4 km/h 14.5 km/h 82 % 0 mm 315 W/m2
12:44 21.2 °C 17.4 °C 1003.9 hPa ENE 4.8 km/h 16.1 km/h 79 % 0 mm 387 W/m2
12:49 21.4 °C 17.8 °C 1003.9 hPa ENE 6.4 km/h 16.1 km/h 80 % 0 mm 570 W/m2
12:54 21.6 °C 17.6 °C 1003.6 hPa East 6.4 km/h 16.1 km/h 78 % 0 mm 413 W/m2
12:59 21.8 °C 17.6 °C 1003.6 hPa ESE 6.4 km/h 16.1 km/h 77 % 0 mm 431 W/m2
13:04 21.9 °C 17.7 °C 1003.6 hPa ESE 6.4 km/h 16.1 km/h 77 % 0 mm 506 W/m2
13:09 22.1 °C 17.9 °C 1003.6 hPa ESE 6.4 km/h 14.5 km/h 77 % 0 mm 318 W/m2
13:14 22.1 °C 17.7 °C 1003.3 hPa ESE 6.4 km/h 17.7 km/h 76 % 0 mm 429 W/m2
13:19 22.1 °C 17.9 °C 1003.3 hPa ESE 6.4 km/h 17.7 km/h 77 % 0 mm 292 W/m2
13:24 22.1 °C 17.9 °C 1003.3 hPa East 8 km/h 16.1 km/h 77 % 0 mm 313 W/m2
13:29 22 °C 17.8 °C 1002.9 hPa East 8 km/h 16.1 km/h 77 % 0 mm 341 W/m2
13:34 22.1 °C 17.9 °C 1003.3 hPa ESE 8 km/h 16.1 km/h 77 % 0 mm 295 W/m2
13:39 22.2 °C 18 °C 1002.9 hPa SE 6.4 km/h 16.1 km/h 77 % 0 mm 236 W/m2
13:44 22.3 °C 18.1 °C 1002.9 hPa SE 6.4 km/h 14.5 km/h 77 % 0 mm 299 W/m2
13:49 22.4 °C 17.9 °C 1002.6 hPa SE 8 km/h 14.5 km/h 76 % 0 mm 322 W/m2
13:54 22.6 °C 18.2 °C 1002.6 hPa SE 6.4 km/h 14.5 km/h 76 % 0 mm 327 W/m2
13:59 22.8 °C 17.9 °C 1002.6 hPa ESE 4.8 km/h 11.3 km/h 74 % 0 mm 334 W/m2
14:04 22.9 °C 17.6 °C 1002.3 hPa East 6.4 km/h 12.9 km/h 72 % 0 mm 357 W/m2
14:09 23.1 °C 17.8 °C 1002.3 hPa East 8 km/h 12.9 km/h 72 % 0 mm 371 W/m2
14:14 23.3 °C 17.5 °C 1002.3 hPa ESE 8 km/h 14.5 km/h 70 % 0 mm 267 W/m2
14:19 23.5 °C 17.7 °C 1002.3 hPa ESE 8 km/h 14.5 km/h 70 % 0 mm 374 W/m2
14:24 23.8 °C 18 °C 1001.9 hPa ESE 6.4 km/h 14.5 km/h 70 % 0 mm 489 W/m2
14:29 24.1 °C 17.8 °C 1001.9 hPa SE 6.4 km/h 16.1 km/h 68 % 0 mm 345 W/m2
14:34 24.1 °C 17.8 °C 1001.9 hPa ESE 8 km/h 16.1 km/h 68 % 0 mm 304 W/m2
14:40 24.1 °C 17.6 °C 1001.9 hPa SE 9.7 km/h 17.7 km/h 67 % 0 mm 287 W/m2
14:45 24.1 °C 17.6 °C 1001.9 hPa SE 9.7 km/h 17.7 km/h 67 % 0 mm 244 W/m2
14:50 24.1 °C 17.6 °C 1001.9 hPa SSE 8 km/h 16.1 km/h 67 % 0 mm 338 W/m2
14:55 24.1 °C 17.6 °C 1001.9 hPa SSE 9.7 km/h 16.1 km/h 67 % 0 mm 251 W/m2
15:00 24.1 °C 17.6 °C 1001.9 hPa SSE 8 km/h 16.1 km/h 67 % 0 mm 220 W/m2
15:05 24.1 °C 17.8 °C 1001.6 hPa SSE 9.7 km/h 16.1 km/h 68 % 0 mm 181 W/m2
15:10 24 °C 17.7 °C 1001.6 hPa South 11.3 km/h 22.5 km/h 68 % 0 mm 274 W/m2
15:15 23.8 °C 17.8 °C 1001.6 hPa South 12.9 km/h 22.5 km/h 69 % 0 mm 364 W/m2
15:20 23.7 °C 17.7 °C 1001.6 hPa South 12.9 km/h 20.9 km/h 69 % 0 mm 315 W/m2
15:25 23.7 °C 17.9 °C 1001.6 hPa South 12.9 km/h 24.1 km/h 70 % 0 mm 401 W/m2
15:30 23.7 °C 17.9 °C 1001.6 hPa South 12.9 km/h 24.1 km/h 70 % 0 mm 279 W/m2
15:35 23.7 °C 18.1 °C 1001.6 hPa South 12.9 km/h 20.9 km/h 71 % 0 mm 325 W/m2
15:40 23.8 °C 18 °C 1001.6 hPa SSE 12.9 km/h 22.5 km/h 70 % 0 mm 329 W/m2
15:45 23.7 °C 17.9 °C 1001.6 hPa SSE 14.5 km/h 25.7 km/h 70 % 0 mm 260 W/m2
15:50 23.5 °C 18.2 °C 1001.2 hPa SSE 14.5 km/h 25.7 km/h 72 % 0 mm 237 W/m2
15:55 23.3 °C 17.9 °C 1001.2 hPa South 14.5 km/h 22.5 km/h 72 % 0 mm 200 W/m2
16:00 23.1 °C 17.8 °C 1001.2 hPa South 14.5 km/h 24.1 km/h 72 % 0 mm 239 W/m2
16:05 23.1 °C 18 °C 1001.2 hPa SSE 16.1 km/h 25.7 km/h 73 % 0 mm 162 W/m2
16:10 22.8 °C 17.7 °C 1001.2 hPa SSE 17.7 km/h 25.7 km/h 73 % 0 mm 139 W/m2
16:15 22.7 °C 17.8 °C 1001.2 hPa SSE 16.1 km/h 25.7 km/h 74 % 0 mm 179 W/m2
16:20 22.7 °C 18.1 °C 1001.2 hPa SSE 12.9 km/h 25.7 km/h 75 % 0 mm 185 W/m2
16:25 22.7 °C 18.1 °C 1001.2 hPa SSE 11.3 km/h 17.7 km/h 75 % 0 mm 246 W/m2
16:30 22.8 °C 17.9 °C 1001.2 hPa SSE 11.3 km/h 20.9 km/h 74 % 0 mm 160 W/m2
16:35 22.8 °C 18.1 °C 1001.2 hPa SSE 11.3 km/h 20.9 km/h 75 % 0 mm 98 W/m2
16:40 22.7 °C 18.1 °C 1001.2 hPa South 11.3 km/h 20.9 km/h 75 % 0 mm 74 W/m2
16:45 22.5 °C 17.8 °C 1001.2 hPa South 11.3 km/h 22.5 km/h 75 % 0 mm 51 W/m2
16:51 22.3 °C 17.7 °C 1001.2 hPa South 14.5 km/h 24.1 km/h 75 % 0 mm 72 W/m2
16:55 22.2 °C 17.8 °C 1001.2 hPa South 12.9 km/h 24.1 km/h 76 % 0 mm 81 W/m2
17:00 22.1 °C 17.9 °C 1001.2 hPa South 11.3 km/h 22.5 km/h 77 % 0 mm 53 W/m2
17:05 22.1 °C 17.9 °C 1001.2 hPa South 9.7 km/h 14.5 km/h 77 % 0 mm 51 W/m2
17:06 22.1 °C 17.9 °C 1001.2 hPa South 9.7 km/h 14.5 km/h 77 % 0 mm 51 W/m2
17:11 22 °C 17.8 °C 1001.2 hPa South 8 km/h 14.5 km/h 77 % 0 mm 37 W/m2
17:16 21.9 °C 17.7 °C 1001.2 hPa South 8 km/h 14.5 km/h 77 % 0 mm 54 W/m2
17:21 21.9 °C 17.9 °C 1001.2 hPa South 8 km/h 12.9 km/h 78 % 0 mm 53 W/m2
17:26 21.8 °C 17.8 °C 1001.2 hPa SSW 6.4 km/h 12.9 km/h 78 % 0 mm 28 W/m2
17:31 21.8 °C 17.8 °C 1001.2 hPa SSW 8 km/h 14.5 km/h 78 % 0 mm 79 W/m2
17:36 21.7 °C 17.9 °C 1001.2 hPa SSW 9.7 km/h 14.5 km/h 79 % 0 mm 88 W/m2
17:41 21.7 °C 17.9 °C 1001.2 hPa South 9.7 km/h 17.7 km/h 79 % 0 mm 72 W/m2
17:46 21.7 °C 17.9 °C 1001.2 hPa South 11.3 km/h 19.3 km/h 79 % 0 mm 76 W/m2
17:51 21.5 °C 18.1 °C 1001.2 hPa South 11.3 km/h 19.3 km/h 81 % 0 mm 51 W/m2
17:56 21.4 °C 18.2 °C 1001.2 hPa South 11.3 km/h 17.7 km/h 82 % 0 mm 53 W/m2
18:01 21.3 °C 18.3 °C 1001.2 hPa SSW 9.7 km/h 17.7 km/h 83 % 0 mm 60 W/m2
18:06 21.1 °C 18.3 °C 1001.2 hPa SSW 9.7 km/h 17.7 km/h 84 % 0 mm 42 W/m2
18:11 20.9 °C 18.3 °C 1001.2 hPa SSW 8 km/h 14.5 km/h 85 % 0 mm 39 W/m2
18:16 20.8 °C 18.4 °C 1001.2 hPa SSW 6.4 km/h 11.3 km/h 86 % 0 mm 37 W/m2
18:21 20.7 °C 18.4 °C 1001.2 hPa SSW 6.4 km/h 11.3 km/h 87 % 0 mm 39 W/m2
18:26 20.7 °C 18.3 °C 1001.2 hPa SSW 6.4 km/h 12.9 km/h 86 % 0 mm 26 W/m2
18:31 20.6 °C 18.3 °C 1001.2 hPa SSW 6.4 km/h 12.9 km/h 87 % 0 mm 26 W/m2
18:36 20.5 °C 18.4 °C 1001.2 hPa SSW 6.4 km/h 12.9 km/h 88 % 0 mm 21 W/m2
18:41 20.4 °C 18.5 °C 1001.2 hPa SSW 4.8 km/h 9.7 km/h 89 % 0 mm 47 W/m2
18:46 20.4 °C 18.5 °C 1001.2 hPa SSE 4.8 km/h 11.3 km/h 89 % 0 mm 53 W/m2
18:51 20.3 °C 18.4 °C 1001.2 hPa SE 4.8 km/h 11.3 km/h 89 % 0 mm 47 W/m2
18:56 20.3 °C 18.4 °C 1001.2 hPa SE 4.8 km/h 11.3 km/h 89 % 0 mm 65 W/m2
19:01 20.3 °C 18.6 °C 1001.2 hPa SE 4.8 km/h 11.3 km/h 90 % 0 mm 72 W/m2
19:06 20.3 °C 18.6 °C 1001.2 hPa SE 4.8 km/h 9.7 km/h 90 % 0 mm 83 W/m2
19:11 20.3 °C 18.6 °C 1001.2 hPa SSE 6.4 km/h 12.9 km/h 90 % 0 mm 65 W/m2
19:16 20.4 °C 18.7 °C 1001.2 hPa SSE 6.4 km/h 12.9 km/h 90 % 0 mm 72 W/m2
19:21 20.4 °C 18.7 °C 1001.2 hPa South 6.4 km/h 12.9 km/h 90 % 0 mm 26 W/m2
19:26 20.5 °C 18.6 °C 1001.2 hPa South 8 km/h 14.5 km/h 89 % 0 mm 18 W/m2
19:31 20.5 °C 18.6 °C 1001.2 hPa South 8 km/h 14.5 km/h 89 % 0 mm 21 W/m2
19:37 20.6 °C 18.7 °C 1001.2 hPa South 8 km/h 12.9 km/h 89 % 0 mm 21 W/m2
19:42 20.6 °C 18.7 °C 1001.6 hPa South 6.4 km/h 12.9 km/h 89 % 0 mm 25 W/m2
19:47 20.6 °C 18.7 °C 1001.2 hPa South 4.8 km/h 9.7 km/h 89 % 0 mm 26 W/m2
19:52 20.6 °C 18.7 °C 1001.6 hPa SSW 6.4 km/h 11.3 km/h 89 % 0 mm 32 W/m2
19:57 20.6 °C 18.6 °C 1001.6 hPa SSW 6.4 km/h 11.3 km/h 88 % 0 mm 35 W/m2
20:02 20.7 °C 18.7 °C 1001.6 hPa SSW 8 km/h 11.3 km/h 88 % 0 mm 30 W/m2
20:07 20.6 °C 18.3 °C 1001.6 hPa SSW 9.7 km/h 17.7 km/h 87 % 0 mm 23 W/m2
20:12 20.7 °C 18.4 °C 1001.6 hPa SSW 9.7 km/h 17.7 km/h 87 % 0 mm 16 W/m2
20:17 20.7 °C 18.4 °C 1001.6 hPa SSW 11.3 km/h 16.1 km/h 87 % 0 mm 14 W/m2
20:22 20.6 °C 18.2 °C 1001.6 hPa SSW 11.3 km/h 17.7 km/h 86 % 0 mm 12 W/m2
20:27 20.6 °C 18.2 °C 1001.6 hPa SSW 12.9 km/h 19.3 km/h 86 % 0 mm 12 W/m2
20:32 20.6 °C 18.2 °C 1001.6 hPa SSW 11.3 km/h 19.3 km/h 86 % 0 mm 12 W/m2
20:37 20.6 °C 18.3 °C 1001.6 hPa SSW 11.3 km/h 16.1 km/h 87 % 0 mm 12 W/m2
20:43 20.5 °C 18.3 °C 1001.6 hPa SSW 11.3 km/h 16.1 km/h 87 % 0 mm 9 W/m2
20:47 20.5 °C 18.3 °C 1001.6 hPa SSW 11.3 km/h 24.1 km/h 87 % 0 mm 7 W/m2
20:53 20.4 °C 18.2 °C 1001.6 hPa SSW 12.9 km/h 24.1 km/h 87 % 0 mm 7 W/m2
20:58 20.4 °C 18.2 °C 1001.6 hPa SSW 12.9 km/h 20.9 km/h 87 % 0 mm 7 W/m2
21:03 20.4 °C 18 °C 1001.6 hPa SSW 14.5 km/h 22.5 km/h 86 % 0 mm 7 W/m2
21:08 20.3 °C 17.9 °C 1001.6 hPa SSW 12.9 km/h 22.5 km/h 86 % 0 mm 5 W/m2
21:13 20.3 °C 18.1 °C 1001.6 hPa SSW 11.3 km/h 19.3 km/h 87 % 0 mm 5 W/m2
21:18 20.3 °C 18.1 °C 1001.6 hPa SSW 11.3 km/h 19.3 km/h 87 % 0 mm 0 W/m2
21:23 20.2 °C 17.9 °C 1001.9 hPa SSW 11.3 km/h 22.5 km/h 87 % 0 mm 0 W/m2
21:28 20.2 °C 17.9 °C 1001.6 hPa SSW 12.9 km/h 22.5 km/h 87 % 0 mm 0 W/m2
21:33 20.1 °C 17.9 °C 1001.6 hPa SSW 14.5 km/h 22.5 km/h 87 % 0 mm 0 W/m2
21:34 20.1 °C 18.1 °C 1001.6 hPa SSW 12.9 km/h 22.5 km/h 88 % 0 mm 0 W/m2
21:39 20.1 °C 18.1 °C 1001.9 hPa SSW 14.5 km/h 22.5 km/h 88 % 0 mm 0 W/m2
21:44 20.1 °C 18.1 °C 1001.6 hPa SSW 16.1 km/h 25.7 km/h 88 % 0 mm 0 W/m2
21:49 19.9 °C 17.8 °C 1001.9 hPa SSW 16.1 km/h 25.7 km/h 88 % 0 mm 0 W/m2
21:54 19.9 °C 17.8 °C 1001.9 hPa SSW 16.1 km/h 25.7 km/h 88 % 0 mm 0 W/m2
21:59 19.9 °C 17.8 °C 1001.9 hPa SSW 16.1 km/h 25.7 km/h 88 % 0 mm 0 W/m2
22:04 19.9 °C 17.8 °C 1001.9 hPa SSW 14.5 km/h 24.1 km/h 88 % 0 mm 0 W/m2
22:09 19.9 °C 17.8 °C 1001.9 hPa SW 12.9 km/h 24.1 km/h 88 % 0 mm 0 W/m2
22:14 19.9 °C 17.8 °C 1001.9 hPa SW 11.3 km/h 17.7 km/h 88 % 0 mm 0 W/m2
22:15 19.9 °C 17.8 °C 1001.9 hPa SW 11.3 km/h 17.7 km/h 88 % 0 mm 0 W/m2
22:20 19.9 °C 17.8 °C 1001.9 hPa SW 11.3 km/h 19.3 km/h 88 % 0 mm 0 W/m2
22:25 19.9 °C 17.7 °C 1001.9 hPa SW 12.9 km/h 19.3 km/h 87 % 0 mm 0 W/m2
22:30 19.9 °C 17.7 °C 1001.9 hPa SW 11.3 km/h 19.3 km/h 87 % 0 mm 0 W/m2
22:35 19.9 °C 17.7 °C 1001.9 hPa SW 9.7 km/h 16.1 km/h 87 % 0 mm 0 W/m2
22:40 19.8 °C 17.6 °C 1001.9 hPa SW 11.3 km/h 17.7 km/h 87 % 0 mm 0 W/m2
22:45 19.8 °C 17.6 °C 1001.9 hPa SW 11.3 km/h 17.7 km/h 87 % 0 mm 0 W/m2
22:50 19.7 °C 17.5 °C 1001.9 hPa SW 11.3 km/h 17.7 km/h 87 % 0 mm 0 W/m2
22:55 19.6 °C 17.4 °C 1001.9 hPa SW 11.3 km/h 19.3 km/h 87 % 0 mm 0 W/m2
23:00 19.6 °C 17.4 °C 1001.9 hPa SW 11.3 km/h 19.3 km/h 87 % 0 mm 0 W/m2
23:05 19.5 °C 17.3 °C 1001.9 hPa WSW 9.7 km/h 19.3 km/h 87 % 0 mm 0 W/m2
23:10 19.5 °C 17.3 °C 1001.9 hPa WSW 8 km/h 19.3 km/h 87 % 0 mm 0 W/m2
23:15 19.4 °C 17.3 °C 1001.9 hPa WSW 8 km/h 14.5 km/h 88 % 0 mm 0 W/m2
23:20 19.4 °C 17.3 °C 1001.9 hPa WSW 8 km/h 19.3 km/h 88 % 0 mm 0 W/m2
23:25 19.4 °C 17.3 °C 1001.9 hPa West 9.7 km/h 19.3 km/h 88 % 0 mm 0 W/m2
23:27 19.4 °C 17.3 °C 1001.9 hPa West 9.7 km/h 19.3 km/h 88 % 0 mm 0 W/m2
23:32 19.4 °C 17.3 °C 1001.9 hPa West 11.3 km/h 19.3 km/h 88 % 0 mm 0 W/m2
23:37 19.3 °C 17.4 °C 1001.9 hPa West 9.7 km/h 19.3 km/h 89 % 0 mm 0 W/m2
23:42 19.3 °C 17.4 °C 1002.3 hPa West 8 km/h 14.5 km/h 89 % 0 mm 0 W/m2
23:47 19.3 °C 17.4 °C 1002.3 hPa West 8 km/h 16.1 km/h 89 % 0 mm 0 W/m2
23:52 19.3 °C 17.4 °C 1002.3 hPa West 6.4 km/h 16.1 km/h 89 % 0 mm 0 W/m2
23:57 19.2 °C 17.3 °C 1002.3 hPa WSW 4.8 km/h 11.3 km/h 89 % 0 mm 0 W/m2
Delerius-Weather
Compliments of Weather Underground - 1.75 mb

Data updates at regular intervals.